Terminal Aerodrome Forecast
Issued by NWS

Home | Current Version | Previous Version | Text Only | Print | Product List | Glossary On
Versions: 1 2 3 4 5 6 7 8 9 10 11 12 13 14 15 16 17 18
000
FTUS43 KMPX 200500
TAFRNH
TAF
KRNH 200527Z 2006/2106 22006KT P6SM SCT050 BKN090
     FM201000 24004KT 4SM BR BKN025
     FM201300 30010KT P6SM BKN035
     FM201800 29011G17KT P6SM BKN045
     FM202300 29012G18KT P6SM BKN050 OVC100
      TEMPO 2023/2101 2SM TSRA OVC030CB
     FM210100 30007KT P6SM SCT050 OVC090=

USA.gov is the U.S. government's official web portal to all federal, state and local government web resources and services.